sensor_id;sensor_type;location;lat;lon;timestamp;P1;durP1;ratioP1;P2;durP2;ratioP2
67344;SDS011;54230;52.402;6.276;2023-04-29T00:00:00;40.0;;;21.2;;
67344;SDS011;54230;52.402;6.276;2023-04-29T00:05:00;40.7;;;21.7;;
67344;SDS011;54230;52.402;6.276;2023-04-29T00:10:00;40.8;;;21.5;;
67344;SDS011;54230;52.402;6.276;2023-04-29T00:15:00;38.6;;;21.5;;
67344;SDS011;54230;52.402;6.276;2023-04-29T00:20:00;40.1;;;21.5;;
67344;SDS011;54230;52.402;6.276;2023-04-29T00:25:00;39.3;;;21.3;;
67344;SDS011;54230;52.402;6.276;2023-04-29T00:30:00;40.9;;;21.4;;
67344;SDS011;54230;52.402;6.276;2023-04-29T00:35:00;37.3;;;20.0;;
67344;SDS011;54230;52.402;6.276;2023-04-29T00:40:00;39.5;;;20.0;;
67344;SDS011;54230;52.402;6.276;2023-04-29T00:45:00;37.4;;;20.1;;
67344;SDS011;54230;52.402;6.276;2023-04-29T00:50:00;37.0;;;19.5;;
67344;SDS011;54230;52.402;6.276;2023-04-29T00:55:00;37.1;;;19.3;;
67344;SDS011;54230;52.402;6.276;2023-04-29T01:00:00;39.3;;;19.7;;
67344;SDS011;54230;52.402;6.276;2023-04-29T01:05:00;39.8;;;19.9;;
67344;SDS011;54230;52.402;6.276;2023-04-29T01:10:02;37.6;;;20.1;;
67344;SDS011;54230;52.402;6.276;2023-04-29T01:15:03;40.9;;;20.3;;
67344;SDS011;54230;52.402;6.276;2023-04-29T01:20:00;36.9;;;20.0;;
67344;SDS011;54230;52.402;6.276;2023-04-29T01:25:00;37.2;;;18.7;;
67344;SDS011;54230;52.402;6.276;2023-04-29T01:30:01;38.9;;;18.6;;
67344;SDS011;54230;52.402;6.276;2023-04-29T01:35:03;36.3;;;19.1;;
67344;SDS011;54230;52.402;6.276;2023-04-29T01:40:04;35.0;;;18.8;;
67344;SDS011;54230;52.402;6.276;2023-04-29T01:45:01;37.8;;;19.4;;
67344;SDS011;54230;52.402;6.276;2023-04-29T01:50:00;34.8;;;18.5;;
67344;SDS011;54230;52.402;6.276;2023-04-29T01:55:01;34.9;;;18.9;;
67344;SDS011;54230;52.402;6.276;2023-04-29T02:00:00;35.9;;;18.2;;
67344;SDS011;54230;52.402;6.276;2023-04-29T02:05:00;35.6;;;17.8;;
67344;SDS011;54230;52.402;6.276;2023-04-29T02:10:00;36.0;;;18.9;;
67344;SDS011;54230;52.402;6.276;2023-04-29T02:15:00;33.2;;;18.3;;
67344;SDS011;54230;52.402;6.276;2023-04-29T02:20:00;33.2;;;17.1;;
67344;SDS011;54230;52.402;6.276;2023-04-29T02:25:00;33.1;;;17.6;;
67344;SDS011;54230;52.402;6.276;2023-04-29T02:30:00;33.2;;;16.9;;
67344;SDS011;54230;52.402;6.276;2023-04-29T02:35:00;32.4;;;17.3;;
67344;SDS011;54230;52.402;6.276;2023-04-29T02:40:00;30.4;;;17.1;;
67344;SDS011;54230;52.402;6.276;2023-04-29T02:45:00;31.4;;;16.4;;
67344;SDS011;54230;52.402;6.276;2023-04-29T02:50:00;29.1;;;16.2;;
67344;SDS011;54230;52.402;6.276;2023-04-29T02:55:00;27.4;;;15.8;;
67344;SDS011;54230;52.402;6.276;2023-04-29T03:00:00;27.5;;;15.8;;
67344;SDS011;54230;52.402;6.276;2023-04-29T03:05:00;29.3;;;15.6;;
67344;SDS011;54230;52.402;6.276;2023-04-29T03:10:00;27.8;;;16.4;;
67344;SDS011;54230;52.402;6.276;2023-04-29T03:15:00;27.1;;;14.9;;
67344;SDS011;54230;52.402;6.276;2023-04-29T03:20:00;29.0;;;15.6;;
67344;SDS011;54230;52.402;6.276;2023-04-29T03:25:00;28.6;;;15.2;;
67344;SDS011;54230;52.402;6.276;2023-04-29T03:30:00;28.4;;;15.6;;
67344;SDS011;54230;52.402;6.276;2023-04-29T03:35:00;28.9;;;15.9;;
67344;SDS011;54230;52.402;6.276;2023-04-29T03:40:00;27.7;;;16.0;;
67344;SDS011;54230;52.402;6.276;2023-04-29T03:45:00;30.9;;;15.4;;
67344;SDS011;54230;52.402;6.276;2023-04-29T03:50:00;31.2;;;16.6;;
67344;SDS011;54230;52.402;6.276;2023-04-29T03:55:00;30.8;;;17.1;;
67344;SDS011;54230;52.402;6.276;2023-04-29T04:00:00;32.6;;;16.8;;
67344;SDS011;54230;52.402;6.276;2023-04-29T04:05:00;37.0;;;17.7;;
67344;SDS011;54230;52.402;6.276;2023-04-29T04:10:00;31.3;;;16.9;;
67344;SDS011;54230;52.402;6.276;2023-04-29T04:15:00;35.7;;;18.2;;
67344;SDS011;54230;52.402;6.276;2023-04-29T04:20:00;31.4;;;16.3;;
67344;SDS011;54230;52.402;6.276;2023-04-29T04:25:00;36.4;;;17.3;;
67344;SDS011;54230;52.402;6.276;2023-04-29T04:30:00;33.9;;;17.4;;
67344;SDS011;54230;52.402;6.276;2023-04-29T04:35:00;34.3;;;17.0;;
67344;SDS011;54230;52.402;6.276;2023-04-29T04:40:00;30.9;;;16.4;;
67344;SDS011;54230;52.402;6.276;2023-04-29T04:45:00;34.7;;;16.5;;
67344;SDS011;54230;52.402;6.276;2023-04-29T04:50:00;30.7;;;15.9;;
67344;SDS011;54230;52.402;6.276;2023-04-29T04:55:00;30.7;;;16.5;;
67344;SDS011;54230;52.402;6.276;2023-04-29T05:00:00;30.6;;;15.9;;
67344;SDS011;54230;52.402;6.276;2023-04-29T05:05:00;32.2;;;16.6;;
67344;SDS011;54230;52.402;6.276;2023-04-29T05:10:00;30.2;;;16.1;;
67344;SDS011;54230;52.402;6.276;2023-04-29T05:15:00;34.2;;;17.0;;
67344;SDS011;54230;52.402;6.276;2023-04-29T05:20:00;31.3;;;16.4;;
67344;SDS011;54230;52.402;6.276;2023-04-29T05:25:00;31.7;;;16.2;;
67344;SDS011;54230;52.402;6.276;2023-04-29T05:30:00;30.8;;;16.2;;
67344;SDS011;54230;52.402;6.276;2023-04-29T05:35:00;32.1;;;16.3;;
67344;SDS011;54230;52.402;6.276;2023-04-29T05:40:00;32.5;;;16.1;;
67344;SDS011;54230;52.402;6.276;2023-04-29T05:45:00;30.0;;;15.0;;
67344;SDS011;54230;52.402;6.276;2023-04-29T05:50:00;29.9;;;15.2;;
67344;SDS011;54230;52.402;6.276;2023-04-29T05:55:00;28.0;;;14.5;;
67344;SDS011;54230;52.402;6.276;2023-04-29T06:00:00;31.2;;;15.3;;
67344;SDS011;54230;52.402;6.276;2023-04-29T06:05:00;34.5;;;14.8;;
67344;SDS011;54230;52.402;6.276;2023-04-29T06:10:00;28.4;;;14.7;;
67344;SDS011;54230;52.402;6.276;2023-04-29T06:15:00;30.8;;;15.6;;
67344;SDS011;54230;52.402;6.276;2023-04-29T06:20:00;29.3;;;14.1;;
67344;SDS011;54230;52.402;6.276;2023-04-29T06:25:00;32.0;;;15.3;;
67344;SDS011;54230;52.402;6.276;2023-04-29T06:30:00;31.5;;;14.8;;
67344;SDS011;54230;52.402;6.276;2023-04-29T06:35:00;29.9;;;14.2;;
67344;SDS011;54230;52.402;6.276;2023-04-29T06:40:00;27.6;;;14.1;;
67344;SDS011;54230;52.402;6.276;2023-04-29T06:45:00;25.1;;;12.7;;
67344;SDS011;54230;52.402;6.276;2023-04-29T06:50:00;26.2;;;12.1;;
67344;SDS011;54230;52.402;6.276;2023-04-29T06:55:00;24.2;;;11.6;;
67344;SDS011;54230;52.402;6.276;2023-04-29T07:00:00;23.4;;;12.1;;
67344;SDS011;54230;52.402;6.276;2023-04-29T07:05:00;20.7;;;11.4;;
67344;SDS011;54230;52.402;6.276;2023-04-29T07:10:00;20.5;;;10.9;;
67344;SDS011;54230;52.402;6.276;2023-04-29T07:15:00;19.9;;;10.7;;
67344;SDS011;54230;52.402;6.276;2023-04-29T07:20:00;20.3;;;10.5;;
67344;SDS011;54230;52.402;6.276;2023-04-29T07:25:00;22.1;;;10.2;;
67344;SDS011;54230;52.402;6.276;2023-04-29T07:30:00;21.0;;;10.7;;
67344;SDS011;54230;52.402;6.276;2023-04-29T07:35:00;19.5;;;9.9;;
67344;SDS011;54230;52.402;6.276;2023-04-29T07:40:00;17.7;;;9.9;;
67344;SDS011;54230;52.402;6.276;2023-04-29T07:45:00;19.5;;;9.4;;
67344;SDS011;54230;52.402;6.276;2023-04-29T07:50:00;18.1;;;9.2;;
67344;SDS011;54230;52.402;6.276;2023-04-29T07:55:00;19.0;;;9.0;;
67344;SDS011;54230;52.402;6.276;2023-04-29T08:00:00;19.9;;;9.3;;
67344;SDS011;54230;52.402;6.276;2023-04-29T08:05:00;16.9;;;8.6;;
67344;SDS011;54230;52.402;6.276;2023-04-29T08:10:00;15.5;;;8.4;;
67344;SDS011;54230;52.402;6.276;2023-04-29T08:15:00;13.9;;;7.9;;
67344;SDS011;54230;52.402;6.276;2023-04-29T08:20:00;16.0;;;8.0;;
67344;SDS011;54230;52.402;6.276;2023-04-29T08:25:00;13.5;;;8.1;;
67344;SDS011;54230;52.402;6.276;2023-04-29T08:30:00;13.9;;;7.8;;
67344;SDS011;54230;52.402;6.276;2023-04-29T08:35:00;17.2;;;8.4;;
67344;SDS011;54230;52.402;6.276;2023-04-29T08:40:00;16.6;;;8.1;;
67344;SDS011;54230;52.402;6.276;2023-04-29T08:45:00;16.2;;;8.2;;
67344;SDS011;54230;52.402;6.276;2023-04-29T08:50:00;14.5;;;7.7;;
67344;SDS011;54230;52.402;6.276;2023-04-29T08:55:00;12.5;;;7.8;;
67344;SDS011;54230;52.402;6.276;2023-04-29T09:00:00;16.0;;;8.2;;
67344;SDS011;54230;52.402;6.276;2023-04-29T09:05:03;12.9;;;7.3;;
67344;SDS011;54230;52.402;6.276;2023-04-29T09:10:00;13.4;;;7.0;;
67344;SDS011;54230;52.402;6.276;2023-04-29T09:15:00;15.6;;;7.7;;
67344;SDS011;54230;52.402;6.276;2023-04-29T09:20:00;13.2;;;7.2;;
67344;SDS011;54230;52.402;6.276;2023-04-29T09:25:10;12.7;;;7.3;;
67344;SDS011;54230;52.402;6.276;2023-04-29T09:30:00;11.5;;;6.9;;
67344;SDS011;54230;52.402;6.276;2023-04-29T09:40:00;11.8;;;6.5;;
67344;SDS011;54230;52.402;6.276;2023-04-29T09:45:00;9.2;;;5.9;;
67344;SDS011;54230;52.402;6.276;2023-04-29T09:50:09;9.6;;;5.7;;
67344;SDS011;54230;52.402;6.276;2023-04-29T09:55:03;14.5;;;6.5;;
67344;SDS011;54230;52.402;6.276;2023-04-29T10:00:00;12.3;;;6.1;;
67344;SDS011;54230;52.402;6.276;2023-04-29T10:05:00;11.6;;;6.1;;
67344;SDS011;54230;52.402;6.276;2023-04-29T10:10:00;10.5;;;5.8;;
67344;SDS011;54230;52.402;6.276;2023-04-29T10:15:01;10.7;;;5.8;;
67344;SDS011;54230;52.402;6.276;2023-04-29T10:20:02;9.2;;;5.6;;
67344;SDS011;54230;52.402;6.276;2023-04-29T10:25:00;11.8;;;6.0;;
67344;SDS011;54230;52.402;6.276;2023-04-29T10:30:00;9.1;;;5.7;;
67344;SDS011;54230;52.402;6.276;2023-04-29T10:35:00;9.1;;;5.5;;
67344;SDS011;54230;52.402;6.276;2023-04-29T10:40:04;10.5;;;6.2;;
67344;SDS011;54230;52.402;6.276;2023-04-29T10:50:00;10.8;;;6.0;;
67344;SDS011;54230;52.402;6.276;2023-04-29T10:55:01;11.0;;;6.1;;
67344;SDS011;54230;52.402;6.276;2023-04-29T11:00:02;10.5;;;5.8;;
67344;SDS011;54230;52.402;6.276;2023-04-29T11:05:08;9.0;;;5.4;;
67344;SDS011;54230;52.402;6.276;2023-04-29T11:10:00;9.1;;;5.5;;
67344;SDS011;54230;52.402;6.276;2023-04-29T11:15:00;7.8;;;4.4;;
67344;SDS011;54230;52.402;6.276;2023-04-29T11:20:00;7.7;;;4.7;;
67344;SDS011;54230;52.402;6.276;2023-04-29T11:25:01;7.8;;;4.7;;
67344;SDS011;54230;52.402;6.276;2023-04-29T11:30:01;11.0;;;5.6;;
67344;SDS011;54230;52.402;6.276;2023-04-29T11:35:10;12.2;;;5.3;;
67344;SDS011;54230;52.402;6.276;2023-04-29T11:40:00;9.9;;;5.4;;
67344;SDS011;54230;52.402;6.276;2023-04-29T11:45:00;9.2;;;5.4;;
67344;SDS011;54230;52.402;6.276;2023-04-29T11:50:02;10.1;;;5.2;;
67344;SDS011;54230;52.402;6.276;2023-04-29T11:55:00;8.9;;;5.0;;
67344;SDS011;54230;52.402;6.276;2023-04-29T12:00:00;10.1;;;5.1;;
67344;SDS011;54230;52.402;6.276;2023-04-29T12:05:04;8.2;;;4.4;;
67344;SDS011;54230;52.402;6.276;2023-04-29T12:10:00;10.3;;;4.8;;
67344;SDS011;54230;52.402;6.276;2023-04-29T12:15:00;8.3;;;4.7;;
67344;SDS011;54230;52.402;6.276;2023-04-29T12:20:00;7.9;;;4.2;;
67344;SDS011;54230;52.402;6.276;2023-04-29T12:25:01;7.4;;;4.3;;
67344;SDS011;54230;52.402;6.276;2023-04-29T12:30:00;8.4;;;4.7;;
67344;SDS011;54230;52.402;6.276;2023-04-29T12:35:00;8.1;;;4.0;;
67344;SDS011;54230;52.402;6.276;2023-04-29T12:40:00;7.9;;;4.3;;
67344;SDS011;54230;52.402;6.276;2023-04-29T12:45:00;8.9;;;4.3;;
67344;SDS011;54230;52.402;6.276;2023-04-29T12:50:00;7.6;;;4.6;;
67344;SDS011;54230;52.402;6.276;2023-04-29T12:55:00;8.4;;;4.7;;
67344;SDS011;54230;52.402;6.276;2023-04-29T13:00:00;7.4;;;4.5;;
67344;SDS011;54230;52.402;6.276;2023-04-29T13:05:00;8.2;;;4.4;;
67344;SDS011;54230;52.402;6.276;2023-04-29T13:10:00;9.2;;;3.7;;
67344;SDS011;54230;52.402;6.276;2023-04-29T13:15:00;8.1;;;4.0;;
67344;SDS011;54230;52.402;6.276;2023-04-29T13:20:00;7.1;;;3.7;;
67344;SDS011;54230;52.402;6.276;2023-04-29T13:25:00;8.4;;;3.8;;
67344;SDS011;54230;52.402;6.276;2023-04-29T13:30:00;7.5;;;3.9;;
67344;SDS011;54230;52.402;6.276;2023-04-29T13:35:00;8.3;;;4.4;;
67344;SDS011;54230;52.402;6.276;2023-04-29T13:40:00;7.7;;;4.4;;
67344;SDS011;54230;52.402;6.276;2023-04-29T13:45:00;6.7;;;3.8;;
67344;SDS011;54230;52.402;6.276;2023-04-29T13:50:00;8.9;;;4.6;;
67344;SDS011;54230;52.402;6.276;2023-04-29T13:55:00;9.0;;;4.2;;
67344;SDS011;54230;52.402;6.276;2023-04-29T14:00:00;6.9;;;3.9;;
67344;SDS011;54230;52.402;6.276;2023-04-29T14:05:00;8.4;;;4.0;;
67344;SDS011;54230;52.402;6.276;2023-04-29T14:10:00;6.5;;;3.9;;
67344;SDS011;54230;52.402;6.276;2023-04-29T14:15:00;8.8;;;4.2;;
67344;SDS011;54230;52.402;6.276;2023-04-29T14:20:00;9.8;;;3.8;;
67344;SDS011;54230;52.402;6.276;2023-04-29T14:25:00;6.8;;;3.5;;
67344;SDS011;54230;52.402;6.276;2023-04-29T14:30:00;6.0;;;3.6;;
67344;SDS011;54230;52.402;6.276;2023-04-29T14:35:00;7.7;;;4.0;;
67344;SDS011;54230;52.402;6.276;2023-04-29T14:40:00;6.4;;;3.9;;
67344;SDS011;54230;52.402;6.276;2023-04-29T14:45:00;7.9;;;3.9;;
67344;SDS011;54230;52.402;6.276;2023-04-29T14:50:00;7.1;;;4.0;;
67344;SDS011;54230;52.402;6.276;2023-04-29T14:55:00;6.6;;;3.4;;
67344;SDS011;54230;52.402;6.276;2023-04-29T15:00:00;6.9;;;3.7;;
67344;SDS011;54230;52.402;6.276;2023-04-29T15:05:00;7.5;;;3.7;;
67344;SDS011;54230;52.402;6.276;2023-04-29T15:10:00;7.3;;;3.4;;
67344;SDS011;54230;52.402;6.276;2023-04-29T15:15:00;6.2;;;3.2;;
67344;SDS011;54230;52.402;6.276;2023-04-29T15:20:00;8.2;;;3.3;;
67344;SDS011;54230;52.402;6.276;2023-04-29T15:25:00;21.6;;;6.6;;
67344;SDS011;54230;52.402;6.276;2023-04-29T15:30:00;11.3;;;3.8;;
67344;SDS011;54230;52.402;6.276;2023-04-29T15:35:00;8.9;;;3.7;;
67344;SDS011;54230;52.402;6.276;2023-04-29T15:40:00;10.0;;;3.7;;
67344;SDS011;54230;52.402;6.276;2023-04-29T15:45:00;7.8;;;3.1;;
67344;SDS011;54230;52.402;6.276;2023-04-29T15:50:00;7.6;;;3.1;;
67344;SDS011;54230;52.402;6.276;2023-04-29T15:55:00;6.9;;;2.6;;
67344;SDS011;54230;52.402;6.276;2023-04-29T16:00:00;5.8;;;2.4;;
67344;SDS011;54230;52.402;6.276;2023-04-29T16:05:00;5.3;;;2.1;;
67344;SDS011;54230;52.402;6.276;2023-04-29T16:10:00;5.2;;;2.0;;
67344;SDS011;54230;52.402;6.276;2023-04-29T16:15:00;3.8;;;2.0;;
67344;SDS011;54230;52.402;6.276;2023-04-29T16:20:00;4.3;;;1.7;;
67344;SDS011;54230;52.402;6.276;2023-04-29T16:25:00;2.9;;;1.8;;
67344;SDS011;54230;52.402;6.276;2023-04-29T16:30:00;3.6;;;1.8;;
67344;SDS011;54230;52.402;6.276;2023-04-29T16:35:00;5.6;;;2.1;;
67344;SDS011;54230;52.402;6.276;2023-04-29T16:40:00;4.6;;;1.8;;
67344;SDS011;54230;52.402;6.276;2023-04-29T16:45:00;3.9;;;1.7;;
67344;SDS011;54230;52.402;6.276;2023-04-29T16:50:00;4.1;;;2.0;;
67344;SDS011;54230;52.402;6.276;2023-04-29T16:55:00;3.9;;;1.8;;
67344;SDS011;54230;52.402;6.276;2023-04-29T17:00:00;3.8;;;2.0;;
67344;SDS011;54230;52.402;6.276;2023-04-29T17:05:00;3.4;;;2.0;;
67344;SDS011;54230;52.402;6.276;2023-04-29T17:10:00;4.6;;;1.9;;
67344;SDS011;54230;52.402;6.276;2023-04-29T17:15:00;3.6;;;1.8;;
67344;SDS011;54230;52.402;6.276;2023-04-29T17:20:00;3.7;;;2.1;;
67344;SDS011;54230;52.402;6.276;2023-04-29T17:25:00;4.2;;;2.3;;
67344;SDS011;54230;52.402;6.276;2023-04-29T17:30:00;5.8;;;2.5;;
67344;SDS011;54230;52.402;6.276;2023-04-29T17:35:00;5.3;;;2.7;;
67344;SDS011;54230;52.402;6.276;2023-04-29T17:40:00;5.6;;;2.9;;
67344;SDS011;54230;52.402;6.276;2023-04-29T17:45:00;5.0;;;2.8;;
67344;SDS011;54230;52.402;6.276;2023-04-29T17:50:00;4.7;;;2.7;;
67344;SDS011;54230;52.402;6.276;2023-04-29T17:55:00;6.7;;;3.3;;
67344;SDS011;54230;52.402;6.276;2023-04-29T18:00:00;5.0;;;3.0;;
67344;SDS011;54230;52.402;6.276;2023-04-29T18:05:00;4.5;;;2.8;;
67344;SDS011;54230;52.402;6.276;2023-04-29T18:10:00;8.0;;;3.3;;
67344;SDS011;54230;52.402;6.276;2023-04-29T18:15:00;5.7;;;3.3;;
67344;SDS011;54230;52.402;6.276;2023-04-29T18:20:00;6.7;;;3.4;;
67344;SDS011;54230;52.402;6.276;2023-04-29T18:25:00;8.3;;;3.5;;
67344;SDS011;54230;52.402;6.276;2023-04-29T18:30:00;11.2;;;4.4;;
67344;SDS011;54230;52.402;6.276;2023-04-29T18:35:00;8.5;;;4.5;;
67344;SDS011;54230;52.402;6.276;2023-04-29T18:40:00;9.4;;;5.0;;
67344;SDS011;54230;52.402;6.276;2023-04-29T18:45:00;11.0;;;5.6;;
67344;SDS011;54230;52.402;6.276;2023-04-29T18:50:00;11.2;;;5.4;;
67344;SDS011;54230;52.402;6.276;2023-04-29T18:55:00;10.9;;;6.2;;
67344;SDS011;54230;52.402;6.276;2023-04-29T19:00:00;11.0;;;6.0;;
67344;SDS011;54230;52.402;6.276;2023-04-29T19:05:00;11.5;;;6.5;;
67344;SDS011;54230;52.402;6.276;2023-04-29T19:10:00;11.1;;;6.2;;
67344;SDS011;54230;52.402;6.276;2023-04-29T19:15:00;13.4;;;6.5;;
67344;SDS011;54230;52.402;6.276;2023-04-29T19:20:00;13.1;;;7.0;;
67344;SDS011;54230;52.402;6.276;2023-04-29T19:25:00;12.0;;;6.4;;
67344;SDS011;54230;52.402;6.276;2023-04-29T19:30:00;11.5;;;6.5;;
67344;SDS011;54230;52.402;6.276;2023-04-29T19:35:00;13.4;;;6.5;;
67344;SDS011;54230;52.402;6.276;2023-04-29T19:40:00;12.4;;;6.4;;
67344;SDS011;54230;52.402;6.276;2023-04-29T19:45:00;13.5;;;6.8;;
67344;SDS011;54230;52.402;6.276;2023-04-29T19:50:00;13.1;;;6.4;;
67344;SDS011;54230;52.402;6.276;2023-04-29T19:55:00;12.2;;;6.3;;
67344;SDS011;54230;52.402;6.276;2023-04-29T20:00:00;12.1;;;6.7;;
67344;SDS011;54230;52.402;6.276;2023-04-29T20:05:00;12.5;;;6.8;;
67344;SDS011;54230;52.402;6.276;2023-04-29T20:10:00;11.4;;;6.2;;
67344;SDS011;54230;52.402;6.276;2023-04-29T20:15:00;11.6;;;6.5;;
67344;SDS011;54230;52.402;6.276;2023-04-29T20:20:00;12.2;;;6.4;;
67344;SDS011;54230;52.402;6.276;2023-04-29T20:25:00;10.3;;;5.8;;
67344;SDS011;54230;52.402;6.276;2023-04-29T20:30:00;10.3;;;5.8;;
67344;SDS011;54230;52.402;6.276;2023-04-29T20:35:00;10.5;;;5.7;;
67344;SDS011;54230;52.402;6.276;2023-04-29T20:40:00;11.0;;;5.2;;
67344;SDS011;54230;52.402;6.276;2023-04-29T20:45:00;9.3;;;5.3;;
67344;SDS011;54230;52.402;6.276;2023-04-29T20:50:00;11.6;;;5.8;;
67344;SDS011;54230;52.402;6.276;2023-04-29T20:55:00;12.0;;;5.9;;
67344;SDS011;54230;52.402;6.276;2023-04-29T21:00:00;8.5;;;5.2;;
67344;SDS011;54230;52.402;6.276;2023-04-29T21:05:00;8.5;;;5.4;;
67344;SDS011;54230;52.402;6.276;2023-04-29T21:10:00;11.7;;;5.8;;
67344;SDS011;54230;52.402;6.276;2023-04-29T21:15:00;8.6;;;5.1;;
67344;SDS011;54230;52.402;6.276;2023-04-29T21:20:00;10.7;;;5.4;;
67344;SDS011;54230;52.402;6.276;2023-04-29T21:25:00;8.6;;;5.4;;
67344;SDS011;54230;52.402;6.276;2023-04-29T21:30:00;10.4;;;5.5;;
67344;SDS011;54230;52.402;6.276;2023-04-29T21:35:00;9.4;;;5.6;;
67344;SDS011;54230;52.402;6.276;2023-04-29T21:40:00;9.7;;;5.5;;
67344;SDS011;54230;52.402;6.276;2023-04-29T21:45:00;9.7;;;5.7;;
67344;SDS011;54230;52.402;6.276;2023-04-29T21:50:00;8.5;;;5.3;;
67344;SDS011;54230;52.402;6.276;2023-04-29T21:55:00;9.3;;;5.6;;
67344;SDS011;54230;52.402;6.276;2023-04-29T22:00:00;8.6;;;5.0;;
67344;SDS011;54230;52.402;6.276;2023-04-29T22:05:00;8.7;;;5.3;;
67344;SDS011;54230;52.402;6.276;2023-04-29T22:10:00;8.2;;;4.5;;
67344;SDS011;54230;52.402;6.276;2023-04-29T22:15:00;8.8;;;4.6;;
67344;SDS011;54230;52.402;6.276;2023-04-29T22:20:00;7.6;;;4.7;;
67344;SDS011;54230;52.402;6.276;2023-04-29T22:25:00;8.2;;;4.9;;
67344;SDS011;54230;52.402;6.276;2023-04-29T22:30:00;8.0;;;4.6;;
67344;SDS011;54230;52.402;6.276;2023-04-29T22:35:00;8.8;;;5.1;;
67344;SDS011;54230;52.402;6.276;2023-04-29T22:40:00;7.2;;;5.0;;
67344;SDS011;54230;52.402;6.276;2023-04-29T22:45:00;8.7;;;4.8;;
67344;SDS011;54230;52.402;6.276;2023-04-29T22:50:00;8.4;;;5.0;;
67344;SDS011;54230;52.402;6.276;2023-04-29T22:55:00;8.3;;;4.7;;
67344;SDS011;54230;52.402;6.276;2023-04-29T23:00:00;8.3;;;4.8;;
67344;SDS011;54230;52.402;6.276;2023-04-29T23:05:00;7.4;;;4.7;;
67344;SDS011;54230;52.402;6.276;2023-04-29T23:10:00;9.0;;;5.2;;
67344;SDS011;54230;52.402;6.276;2023-04-29T23:15:00;9.4;;;5.2;;
67344;SDS011;54230;52.402;6.276;2023-04-29T23:20:00;9.1;;;4.9;;
67344;SDS011;54230;52.402;6.276;2023-04-29T23:25:00;9.8;;;5.2;;
67344;SDS011;54230;52.402;6.276;2023-04-29T23:30:00;8.5;;;5.0;;
67344;SDS011;54230;52.402;6.276;2023-04-29T23:35:00;8.6;;;5.0;;
67344;SDS011;54230;52.402;6.276;2023-04-29T23:40:00;7.8;;;4.7;;
67344;SDS011;54230;52.402;6.276;2023-04-29T23:45:00;10.4;;;5.2;;
67344;SDS011;54230;52.402;6.276;2023-04-29T23:50:00;8.7;;;5.0;;
67344;SDS011;54230;52.402;6.276;2023-04-29T23:55:00;8.2;;;5.2;;
